createdAt,value
2023-05-29T00:00:24.772Z,62.15
2023-05-29T00:02:51.847Z,61.64
2023-05-29T00:05:18.623Z,62.07
2023-05-29T00:07:45.023Z,61.87
2023-05-29T00:10:11.636Z,61.61
2023-05-29T00:12:38.429Z,61.77
2023-05-29T00:15:05.237Z,62.16
2023-05-29T00:17:34.653Z,61.60
2023-05-29T00:20:02.581Z,61.89
2023-05-29T00:22:29.041Z,62.13
2023-05-29T00:24:55.530Z,61.50
2023-05-29T00:27:21.943Z,61.45
2023-05-29T00:29:48.312Z,61.39
2023-05-29T00:32:14.700Z,61.31
2023-05-29T00:34:41.160Z,60.85
2023-05-29T00:37:07.699Z,61.06
2023-05-29T00:39:34.123Z,61.35
2023-05-29T00:42:00.654Z,60.88
2023-05-29T00:44:27.016Z,60.65
2023-05-29T00:46:57.466Z,60.03
2023-05-29T00:49:23.879Z,59.59
2023-05-29T00:51:51.108Z,59.92
2023-05-29T00:54:18.778Z,60.84
2023-05-29T00:56:45.242Z,60.36
2023-05-29T00:59:12.058Z,59.68
2023-05-29T01:01:38.794Z,59.40
2023-05-29T01:04:07.580Z,59.56
2023-05-29T01:06:34.229Z,60.69
2023-05-29T01:09:00.766Z,61.47
2023-05-29T01:11:45.645Z,60.45
2023-05-29T01:14:15.027Z,61.48
2023-05-29T01:16:45.862Z,60.47
2023-05-29T01:19:23.996Z,60.19
2023-05-29T01:22:09.161Z,59.73
2023-05-29T01:24:36.110Z,59.80
2023-05-29T01:27:04.859Z,59.73
2023-05-29T01:29:32.312Z,60.10
2023-05-29T01:31:59.064Z,59.83
2023-05-29T01:34:25.527Z,60.09
2023-05-29T01:36:51.984Z,60.36
2023-05-29T01:39:19.957Z,60.71
2023-05-29T01:41:46.339Z,60.88
2023-05-29T01:44:13.601Z,60.94
2023-05-29T01:46:40.834Z,60.91
2023-05-29T01:49:07.456Z,61.59
2023-05-29T01:51:33.826Z,62.77
2023-05-29T01:54:01.700Z,61.33
2023-05-29T01:56:28.438Z,62.31
2023-05-29T01:58:57.864Z,62.35
2023-05-29T02:01:24.379Z,63.07
2023-05-29T02:03:52.027Z,62.21
2023-05-29T02:06:18.529Z,62.53
2023-05-29T02:08:45.025Z,62.26
2023-05-29T02:11:11.373Z,61.97
2023-05-29T02:13:38.076Z,61.76
2023-05-29T02:16:04.604Z,61.46
2023-05-29T02:18:32.078Z,62.00
2023-05-29T02:20:58.677Z,61.91
2023-05-29T02:23:25.477Z,62.45
2023-05-29T02:25:52.191Z,63.17
2023-05-29T02:28:18.537Z,63.58
2023-05-29T02:30:44.935Z,63.50
2023-05-29T02:33:11.299Z,63.54
2023-05-29T02:35:37.701Z,63.75
2023-05-29T02:38:04.235Z,64.10
2023-05-29T02:40:30.579Z,64.33
2023-05-29T02:42:56.970Z,65.31
2023-05-29T02:45:23.425Z,64.81
2023-05-29T02:47:49.811Z,65.48
2023-05-29T02:50:16.531Z,66.08
2023-05-29T02:52:42.942Z,66.01
2023-05-29T02:55:09.458Z,66.36
2023-05-29T02:57:36.403Z,66.54
2023-05-29T03:00:06.317Z,66.93
2023-05-29T03:02:32.860Z,67.23
2023-05-29T03:04:59.523Z,67.77
2023-05-29T03:07:25.923Z,67.85
2023-05-29T03:09:53.278Z,67.56
2023-05-29T03:12:19.928Z,68.09
2023-05-29T03:14:46.517Z,68.81
2023-05-29T03:17:13.437Z,69.55
2023-05-29T03:19:40.018Z,68.87
2023-05-29T03:22:06.566Z,69.28
2023-05-29T03:24:35.924Z,69.19
2023-05-29T03:27:04.345Z,69.18
2023-05-29T03:29:31.364Z,68.85
2023-05-29T03:31:57.740Z,69.15
2023-05-29T03:34:24.127Z,68.87
2023-05-29T03:36:50.741Z,67.97
2023-05-29T03:39:17.133Z,68.67
2023-05-29T03:41:43.504Z,69.40
2023-05-29T03:44:10.881Z,69.70
2023-05-29T03:46:37.288Z,70.05
2023-05-29T03:49:03.693Z,70.93
2023-05-29T03:51:30.067Z,70.63
2023-05-29T03:53:56.428Z,70.31
2023-05-29T03:56:22.821Z,70.14
2023-05-29T03:58:49.282Z,70.11
2023-05-29T04:01:15.683Z,69.75
2023-05-29T04:03:42.237Z,70.48
2023-05-29T04:06:09.258Z,69.75
2023-05-29T04:08:35.660Z,69.20
2023-05-29T04:11:02.404Z,69.21
2023-05-29T04:13:28.842Z,68.74
2023-05-29T04:15:55.660Z,68.28
2023-05-29T04:18:22.215Z,67.29
2023-05-29T04:20:48.851Z,67.18
2023-05-29T04:23:15.496Z,66.71
2023-05-29T04:25:41.933Z,66.41
2023-05-29T04:28:08.380Z,66.05
2023-05-29T04:30:34.875Z,65.73
2023-05-29T04:33:01.361Z,65.51
2023-05-29T04:35:29.432Z,64.22
2023-05-29T04:37:57.399Z,63.88
2023-05-29T04:40:23.792Z,64.44
2023-05-29T04:42:50.860Z,63.59
2023-05-29T04:45:17.363Z,64.00
2023-05-29T04:47:46.872Z,63.52
2023-05-29T04:50:13.703Z,63.33
2023-05-29T04:52:40.174Z,62.31
2023-05-29T04:55:07.209Z,62.14
2023-05-29T04:57:33.845Z,61.39
2023-05-29T05:00:00.312Z,60.54
2023-05-29T05:02:26.875Z,60.85
2023-05-29T05:04:53.314Z,60.42
2023-05-29T05:07:19.687Z,59.66
2023-05-29T05:09:46.051Z,59.31
2023-05-29T05:12:12.565Z,60.23
2023-05-29T05:14:39.028Z,59.58
2023-05-29T05:17:05.835Z,58.51
2023-05-29T05:19:32.286Z,59.08
2023-05-29T05:21:58.645Z,58.59
2023-05-29T05:24:25.072Z,57.45
2023-05-29T05:26:51.465Z,57.14
2023-05-29T05:29:17.907Z,57.34
2023-05-29T05:31:44.303Z,57.09
2023-05-29T05:34:10.871Z,57.03
2023-05-29T05:36:37.817Z,56.60
2023-05-29T05:39:04.265Z,57.05
2023-05-29T05:41:30.741Z,56.37
2023-05-29T05:43:57.115Z,56.62
2023-05-29T05:46:25.205Z,56.06
2023-05-29T05:48:54.226Z,56.71
2023-05-29T05:51:20.749Z,56.44
2023-05-29T05:53:47.522Z,55.67
2023-05-29T05:56:14.053Z,54.64
2023-05-29T05:58:40.823Z,55.60
2023-05-29T06:01:08.609Z,53.72
2023-05-29T06:03:35.592Z,54.43
2023-05-29T06:06:02.076Z,54.38
2023-05-29T06:08:28.446Z,54.89
2023-05-29T06:10:55.097Z,54.23
2023-05-29T06:13:21.748Z,54.07
2023-05-29T06:15:48.198Z,53.52
2023-05-29T06:18:14.754Z,53.82
2023-05-29T06:20:42.230Z,53.77
2023-05-29T06:23:08.722Z,52.74
2023-05-29T06:25:35.166Z,52.67
2023-05-29T06:28:02.150Z,52.08
2023-05-29T06:30:28.874Z,50.59
2023-05-29T06:32:55.455Z,50.03
2023-05-29T06:35:21.925Z,49.84
2023-05-29T06:37:48.644Z,50.05
2023-05-29T06:40:16.683Z,48.75
2023-05-29T06:42:45.519Z,48.63
2023-05-29T06:45:14.433Z,49.04
2023-05-29T06:47:41.634Z,49.89
2023-05-29T06:50:08.725Z,48.98
2023-05-29T06:52:35.113Z,49.70
2023-05-29T06:55:02.445Z,49.32
2023-05-29T06:57:28.988Z,49.01
2023-05-29T06:59:55.351Z,49.83
2023-05-29T07:02:21.971Z,49.16
2023-05-29T07:04:48.430Z,48.98
2023-05-29T07:07:14.821Z,48.30
2023-05-29T07:09:41.217Z,48.67
2023-05-29T07:12:07.596Z,47.84
2023-05-29T07:14:34.915Z,46.93
2023-05-29T07:17:01.530Z,45.89
2023-05-29T07:19:28.839Z,45.82
2023-05-29T07:21:55.252Z,45.75
2023-05-29T07:24:21.673Z,45.57
2023-05-29T07:26:48.115Z,46.11
2023-05-29T07:29:15.604Z,45.87
2023-05-29T07:31:42.048Z,44.26
2023-05-29T07:34:08.434Z,44.69
2023-05-29T07:36:34.878Z,44.42
2023-05-29T07:39:01.312Z,45.39
2023-05-29T07:41:27.866Z,44.11
2023-05-29T07:43:54.991Z,44.18
2023-05-29T07:46:21.602Z,44.41
2023-05-29T07:48:48.147Z,44.12
2023-05-29T07:51:15.099Z,43.46
2023-05-29T07:53:41.509Z,42.82
2023-05-29T07:56:08.027Z,43.03
2023-05-29T07:58:34.462Z,43.52
2023-05-29T08:01:00.899Z,43.27
2023-05-29T08:03:28.224Z,43.33
2023-05-29T08:05:54.754Z,43.29
2023-05-29T08:08:21.189Z,42.57
2023-05-29T08:10:47.656Z,42.21
2023-05-29T08:13:14.028Z,41.78
2023-05-29T08:15:40.426Z,42.04
2023-05-29T08:18:07.943Z,41.97
2023-05-29T08:20:36.138Z,42.19
2023-05-29T08:23:02.673Z,42.57
2023-05-29T08:25:29.046Z,41.06
2023-05-29T08:27:55.596Z,41.63
2023-05-29T08:30:23.010Z,39.48
2023-05-29T08:32:51.334Z,39.24
2023-05-29T08:35:17.744Z,39.92
2023-05-29T08:37:44.239Z,39.83
2023-05-29T08:40:11.781Z,39.31
2023-05-29T08:42:40.990Z,39.63
2023-05-29T08:45:08.453Z,37.98
2023-05-29T08:47:35.258Z,38.10
2023-05-29T08:50:02.402Z,37.92
2023-05-29T08:52:28.905Z,37.86
2023-05-29T08:54:55.460Z,37.32
2023-05-29T08:57:21.863Z,36.75
2023-05-29T08:59:50.413Z,36.56
2023-05-29T09:02:16.880Z,37.43
2023-05-29T09:04:45.986Z,38.01
2023-05-29T09:07:12.878Z,37.66
2023-05-29T09:09:39.255Z,37.07
2023-05-29T09:12:05.770Z,37.69
2023-05-29T09:14:35.904Z,36.07
2023-05-29T09:17:03.000Z,35.25
2023-05-29T09:19:29.350Z,36.04
2023-05-29T09:22:02.813Z,35.36
2023-05-29T09:24:29.444Z,34.21
2023-05-29T09:26:56.839Z,35.20
2023-05-29T09:29:23.445Z,34.26
2023-05-29T09:31:50.282Z,34.41
2023-05-29T09:34:17.012Z,34.11
2023-05-29T09:36:43.422Z,34.28
2023-05-29T09:39:17.684Z,33.43
2023-05-29T09:41:45.197Z,33.15
2023-05-29T09:44:15.026Z,33.35
2023-05-29T09:46:42.492Z,33.16
2023-05-29T09:49:15.197Z,33.22
2023-05-29T09:51:43.575Z,32.91
2023-05-29T09:54:16.893Z,34.90
2023-05-29T09:56:43.739Z,33.52
2023-05-29T09:59:13.364Z,31.34
2023-05-29T10:01:40.793Z,31.10
2023-05-29T10:04:07.216Z,31.74
2023-05-29T10:06:34.028Z,31.20
2023-05-29T10:09:01.641Z,30.67
2023-05-29T10:11:28.745Z,31.40
2023-05-29T10:13:55.281Z,31.42
2023-05-29T10:16:22.773Z,30.45
2023-05-29T10:18:51.396Z,30.88
2023-05-29T10:21:18.043Z,29.99
2023-05-29T10:23:46.823Z,30.26
2023-05-29T10:26:15.340Z,35.32
2023-05-29T10:28:42.645Z,36.91
2023-05-29T10:31:15.346Z,36.72
2023-05-29T10:33:51.423Z,37.17
2023-05-29T10:36:19.669Z,37.14
2023-05-29T10:38:46.296Z,37.80
2023-05-29T10:41:25.153Z,35.80
2023-05-29T10:43:51.774Z,36.47
2023-05-29T10:46:18.196Z,37.08
2023-05-29T10:48:44.745Z,37.39
2023-05-29T10:51:25.565Z,37.34
2023-05-29T10:53:52.157Z,38.05
2023-05-29T10:56:23.669Z,38.38
2023-05-29T10:58:58.541Z,36.21
2023-05-29T11:01:26.122Z,37.08
2023-05-29T11:03:55.799Z,37.10
2023-05-29T11:06:24.794Z,36.22
2023-05-29T11:08:55.152Z,36.54
2023-05-29T11:11:36.598Z,35.38
2023-05-29T11:14:06.751Z,36.31
2023-05-29T11:16:33.562Z,35.15
2023-05-29T11:19:01.232Z,36.04
2023-05-29T11:21:46.845Z,36.56
2023-05-29T11:24:28.947Z,36.85
2023-05-29T11:26:55.930Z,36.41
2023-05-29T11:29:23.230Z,34.43
2023-05-29T11:31:49.648Z,35.00
2023-05-29T11:34:16.129Z,35.10
2023-05-29T11:36:44.453Z,35.09
2023-05-29T11:39:11.027Z,34.64
2023-05-29T11:41:37.405Z,34.18
2023-05-29T11:44:06.791Z,34.38
2023-05-29T11:46:33.697Z,34.84
2023-05-29T11:49:00.547Z,35.25
2023-05-29T11:51:27.040Z,33.92
2023-05-29T11:53:58.934Z,34.30
2023-05-29T11:56:26.632Z,33.23
2023-05-29T11:58:56.432Z,34.42
2023-05-29T12:01:24.644Z,34.52
2023-05-29T12:03:51.641Z,33.77
2023-05-29T12:06:18.071Z,34.34
2023-05-29T12:08:45.182Z,34.48
2023-05-29T12:11:11.606Z,34.95
2023-05-29T12:13:38.180Z,34.02
2023-05-29T12:16:05.513Z,34.20
2023-05-29T12:18:31.925Z,34.73
2023-05-29T12:21:01.929Z,34.89
2023-05-29T12:23:29.004Z,34.94
2023-05-29T12:25:55.629Z,34.46
2023-05-29T12:28:22.613Z,34.73
2023-05-29T12:30:52.473Z,33.60
2023-05-29T12:33:31.949Z,33.65
2023-05-29T12:36:08.634Z,33.44
2023-05-29T12:38:37.477Z,33.26
2023-05-29T12:41:04.035Z,34.23
2023-05-29T12:43:30.669Z,33.92
2023-05-29T12:46:00.354Z,34.28
2023-05-29T12:48:27.631Z,33.48
2023-05-29T12:50:54.047Z,34.32
2023-05-29T12:53:20.647Z,34.77
2023-05-29T12:55:47.995Z,33.76
2023-05-29T12:58:14.957Z,32.52
2023-05-29T13:00:42.037Z,33.62
2023-05-29T13:03:08.863Z,33.57
2023-05-29T13:05:35.982Z,32.30
2023-05-29T13:08:02.553Z,32.38
2023-05-29T13:10:29.083Z,32.64
2023-05-29T13:12:56.160Z,32.99
2023-05-29T13:15:23.525Z,32.80
2023-05-29T13:17:50.081Z,32.99
2023-05-29T13:20:16.777Z,32.01
2023-05-29T13:22:43.744Z,32.39
2023-05-29T13:25:11.334Z,32.53
2023-05-29T13:27:38.546Z,33.66
2023-05-29T13:30:05.945Z,33.96
2023-05-29T13:32:32.398Z,34.45
2023-05-29T13:34:58.872Z,34.73
2023-05-29T13:37:25.446Z,34.71
2023-05-29T13:39:51.905Z,35.43
2023-05-29T13:42:18.803Z,34.27
2023-05-29T13:44:45.210Z,36.47
2023-05-29T13:47:11.573Z,36.06
2023-05-29T13:49:38.018Z,38.02
2023-05-29T13:52:04.738Z,37.20
2023-05-29T13:54:32.557Z,37.69
2023-05-29T13:56:59.099Z,37.41
2023-05-29T13:59:25.732Z,39.43
2023-05-29T14:01:52.276Z,40.60
2023-05-29T14:04:18.775Z,39.15
2023-05-29T14:06:45.652Z,39.06
2023-05-29T14:09:12.200Z,39.70
2023-05-29T14:11:38.685Z,41.04
2023-05-29T14:14:05.100Z,40.36
2023-05-29T14:16:31.703Z,40.43
2023-05-29T14:18:58.976Z,41.07
2023-05-29T14:21:25.463Z,40.38
2023-05-29T14:23:51.836Z,40.78
2023-05-29T14:26:18.341Z,41.58
2023-05-29T14:28:44.921Z,41.43
2023-05-29T14:31:11.339Z,42.40
2023-05-29T14:33:37.885Z,42.34
2023-05-29T14:36:04.390Z,41.29
2023-05-29T14:38:30.762Z,41.82
2023-05-29T14:41:07.985Z,41.56
2023-05-29T14:43:35.553Z,42.67
2023-05-29T14:46:01.991Z,42.53
2023-05-29T14:48:28.405Z,42.56
2023-05-29T14:51:04.577Z,42.38
2023-05-29T14:53:33.762Z,42.65
2023-05-29T14:56:00.204Z,43.06
2023-05-29T14:58:26.649Z,43.14
2023-05-29T15:00:53.098Z,43.48
2023-05-29T15:03:19.621Z,43.64
2023-05-29T15:05:46.856Z,43.78
2023-05-29T15:08:13.318Z,44.02
2023-05-29T15:10:39.735Z,45.32
2023-05-29T15:13:08.293Z,45.77
2023-05-29T15:15:47.356Z,45.31
2023-05-29T15:18:15.053Z,45.40
2023-05-29T15:20:41.925Z,45.18
2023-05-29T15:23:08.441Z,45.91
2023-05-29T15:25:34.822Z,46.11
2023-05-29T15:28:01.652Z,46.77
2023-05-29T15:30:28.038Z,46.18
2023-05-29T15:32:54.449Z,45.63
2023-05-29T15:35:21.034Z,46.53
2023-05-29T15:37:47.453Z,46.31
2023-05-29T15:40:13.879Z,46.23
2023-05-29T15:42:41.744Z,46.07
2023-05-29T15:45:09.034Z,47.60
2023-05-29T15:47:35.590Z,47.36
2023-05-29T15:50:02.018Z,47.58
2023-05-29T15:52:29.857Z,48.53
2023-05-29T15:54:59.838Z,49.03
2023-05-29T15:57:27.128Z,49.29
2023-05-29T15:59:53.524Z,49.28
2023-05-29T16:02:19.917Z,49.89
2023-05-29T16:04:55.464Z,50.20
2023-05-29T16:07:25.510Z,50.19
2023-05-29T16:09:52.307Z,50.57
2023-05-29T16:12:18.785Z,49.59
2023-05-29T16:14:45.283Z,49.08
2023-05-29T16:17:11.758Z,48.68
2023-05-29T16:19:38.210Z,48.12
2023-05-29T16:22:04.680Z,48.22
2023-05-29T16:24:31.155Z,48.19
2023-05-29T16:26:57.600Z,48.04
2023-05-29T16:29:26.527Z,47.35
2023-05-29T16:31:52.937Z,47.05
2023-05-29T16:34:19.351Z,47.11
2023-05-29T16:36:45.832Z,47.15
2023-05-29T16:39:12.700Z,46.76
2023-05-29T16:41:39.454Z,47.43
2023-05-29T16:44:05.975Z,47.68
2023-05-29T16:46:34.335Z,48.48
2023-05-29T16:49:01.103Z,47.94
2023-05-29T16:51:27.498Z,49.24
2023-05-29T16:53:54.001Z,49.00
2023-05-29T16:56:20.392Z,49.27
2023-05-29T16:58:46.921Z,49.56
2023-05-29T17:01:13.473Z,50.73
2023-05-29T17:03:40.232Z,49.55
2023-05-29T17:06:06.777Z,49.75
2023-05-29T17:08:33.267Z,48.55
2023-05-29T17:11:01.252Z,49.08
2023-05-29T17:13:28.990Z,49.94
2023-05-29T17:15:55.913Z,49.67
2023-05-29T17:18:22.558Z,49.86
2023-05-29T17:20:49.125Z,50.28
2023-05-29T17:23:15.615Z,49.30
2023-05-29T17:25:42.088Z,49.16
2023-05-29T17:28:10.687Z,47.74
2023-05-29T17:30:37.812Z,47.12
2023-05-29T17:33:04.699Z,47.28
2023-05-29T17:35:31.757Z,48.07
2023-05-29T17:37:58.301Z,46.68
2023-05-29T17:40:25.717Z,48.02
2023-05-29T17:42:54.291Z,47.99
2023-05-29T17:45:22.405Z,48.60
2023-05-29T17:47:49.912Z,49.30
2023-05-29T17:50:16.650Z,49.10
2023-05-29T17:52:43.364Z,49.08
2023-05-29T17:55:10.053Z,50.24
2023-05-29T17:57:36.878Z,49.91
2023-05-29T18:00:04.962Z,50.12
2023-05-29T18:02:31.501Z,51.19
2023-05-29T18:04:57.987Z,50.34
2023-05-29T18:07:24.471Z,51.21
2023-05-29T18:09:50.870Z,51.04
2023-05-29T18:12:17.282Z,51.41
2023-05-29T18:14:43.691Z,50.90
2023-05-29T18:17:10.251Z,51.27
2023-05-29T18:19:39.538Z,51.59
2023-05-29T18:22:07.311Z,51.55
2023-05-29T18:24:33.693Z,51.75
2023-05-29T18:27:00.108Z,52.19
2023-05-29T18:29:26.642Z,52.05
2023-05-29T18:31:53.073Z,52.25
2023-05-29T18:34:20.138Z,52.40
2023-05-29T18:36:46.606Z,53.02
2023-05-29T18:39:13.060Z,53.28
2023-05-29T18:41:39.472Z,52.79
2023-05-29T18:44:05.928Z,53.58
2023-05-29T18:46:32.641Z,53.73
2023-05-29T18:48:59.103Z,53.98
2023-05-29T18:51:26.029Z,54.77
2023-05-29T18:53:52.420Z,54.67
2023-05-29T18:56:20.082Z,54.47
2023-05-29T18:58:47.513Z,54.53
2023-05-29T19:01:30.131Z,55.37
2023-05-29T19:03:58.222Z,54.90
2023-05-29T19:06:24.776Z,54.63
2023-05-29T19:08:51.174Z,54.33
2023-05-29T19:11:18.310Z,54.38
2023-05-29T19:13:46.875Z,55.06
2023-05-29T19:16:19.380Z,54.65
2023-05-29T19:18:45.954Z,54.86
2023-05-29T19:21:12.739Z,55.60
2023-05-29T19:23:39.235Z,55.38
2023-05-29T19:26:06.288Z,55.52
2023-05-29T19:28:32.675Z,55.96
2023-05-29T19:30:59.331Z,56.05
2023-05-29T19:33:25.906Z,55.88
2023-05-29T19:35:52.788Z,56.37
2023-05-29T19:38:19.270Z,57.22
2023-05-29T19:40:46.963Z,57.23
2023-05-29T19:43:13.916Z,56.87
2023-05-29T19:45:40.342Z,57.01
2023-05-29T19:48:07.264Z,56.86
2023-05-29T19:50:33.788Z,57.34
2023-05-29T19:53:00.364Z,57.30
2023-05-29T19:55:27.344Z,57.02
2023-05-29T19:57:53.935Z,57.45
2023-05-29T20:00:20.320Z,57.54
2023-05-29T20:02:46.937Z,57.79
2023-05-29T20:05:13.600Z,58.12
2023-05-29T20:07:40.016Z,58.03
2023-05-29T20:10:07.418Z,58.50
2023-05-29T20:12:33.930Z,58.71
2023-05-29T20:15:01.361Z,58.90
2023-05-29T20:17:27.877Z,60.24
2023-05-29T20:19:56.745Z,60.50
2023-05-29T20:22:24.227Z,61.25
2023-05-29T20:24:50.704Z,61.39
2023-05-29T20:27:17.288Z,61.62
2023-05-29T20:29:43.836Z,61.60
2023-05-29T20:32:11.201Z,61.83
2023-05-29T20:34:37.892Z,62.10
2023-05-29T20:37:04.616Z,61.69
2023-05-29T20:39:35.247Z,61.77
2023-05-29T20:42:03.604Z,62.21
2023-05-29T20:44:32.717Z,63.14
2023-05-29T20:46:59.659Z,62.86
2023-05-29T20:49:26.171Z,63.30
2023-05-29T20:51:52.872Z,64.08
2023-05-29T20:54:19.496Z,63.38
2023-05-29T20:56:47.118Z,62.90
2023-05-29T20:59:13.498Z,63.68
2023-05-29T21:01:41.377Z,64.08
2023-05-29T21:04:07.957Z,64.34
2023-05-29T21:06:34.366Z,65.21
2023-05-29T21:09:00.794Z,64.77
2023-05-29T21:11:27.972Z,65.40
2023-05-29T21:13:54.742Z,65.08
2023-05-29T21:16:21.489Z,65.70
2023-05-29T21:18:47.976Z,65.59
2023-05-29T21:21:16.142Z,66.45
2023-05-29T21:23:44.460Z,65.99
2023-05-29T21:26:10.954Z,65.27
2023-05-29T21:28:39.350Z,66.14
2023-05-29T21:31:08.894Z,66.01
2023-05-29T21:33:35.972Z,66.60
2023-05-29T21:36:02.465Z,67.06
2023-05-29T21:38:28.883Z,66.70
2023-05-29T21:40:55.906Z,66.49
2023-05-29T21:43:22.685Z,66.78
2023-05-29T21:45:51.570Z,67.02
2023-05-29T21:48:18.129Z,67.36
2023-05-29T21:50:45.907Z,66.81
2023-05-29T21:53:12.402Z,67.49
2023-05-29T21:55:39.219Z,67.95
2023-05-29T21:58:05.896Z,68.29
2023-05-29T22:00:32.391Z,67.21
2023-05-29T22:02:59.288Z,67.96
2023-05-29T22:05:26.500Z,68.44
2023-05-29T22:07:54.192Z,68.69
2023-05-29T22:10:21.081Z,68.24
2023-05-29T22:12:49.900Z,68.35
2023-05-29T22:15:18.564Z,68.94
2023-05-29T22:17:46.869Z,69.10
2023-05-29T22:20:15.314Z,69.33
2023-05-29T22:22:44.091Z,69.00
2023-05-29T22:25:14.064Z,69.44
2023-05-29T22:27:40.843Z,69.56
2023-05-29T22:30:08.743Z,69.25
2023-05-29T22:32:35.434Z,68.96
2023-05-29T22:35:03.370Z,69.40
2023-05-29T22:37:29.778Z,69.70
2023-05-29T22:39:56.176Z,69.71
2023-05-29T22:42:22.572Z,68.83
2023-05-29T22:44:49.264Z,68.34
2023-05-29T22:47:16.735Z,69.90
2023-05-29T22:49:43.160Z,69.49
2023-05-29T22:52:10.636Z,69.16
2023-05-29T22:54:37.726Z,70.09
2023-05-29T22:57:04.644Z,70.13
2023-05-29T22:59:31.051Z,69.06
2023-05-29T23:01:57.871Z,70.01
2023-05-29T23:04:24.370Z,69.26
2023-05-29T23:06:50.867Z,68.54
2023-05-29T23:09:17.316Z,69.59
2023-05-29T23:11:43.682Z,69.50
2023-05-29T23:14:10.367Z,70.33
2023-05-29T23:16:37.642Z,69.87
2023-05-29T23:19:04.430Z,69.11
2023-05-29T23:21:31.629Z,68.90
2023-05-29T23:23:58.907Z,69.40
2023-05-29T23:26:25.666Z,68.73
2023-05-29T23:28:52.452Z,69.39
2023-05-29T23:31:18.893Z,69.36
2023-05-29T23:33:45.599Z,68.93
2023-05-29T23:36:12.139Z,67.94
2023-05-29T23:38:38.554Z,69.09
2023-05-29T23:41:04.961Z,69.09
2023-05-29T23:43:32.350Z,69.43
2023-05-29T23:45:58.904Z,69.24
2023-05-29T23:48:25.309Z,69.66
2023-05-29T23:50:52.046Z,68.00
2023-05-29T23:53:18.427Z,68.65
2023-05-29T23:55:44.831Z,67.70
2023-05-29T23:58:11.675Z,69.03
